Time;durP1;ratioP1;P1;durP2;ratioP2;P2;SDS_P1;SDS_P2;PMS_P1;PMS_P2;Temp;Humidity;BMP_temperature;BMP_pressure;BME280_temperature;BME280_humidity;BME280_pressure;Samples;Min_cycle;Max_cycle;Signal;HPM_P1;HPM_P2
2024/04/06 00:01:50;;;;;;;56.70;34.20;;;;;;;1.33;100.00;100783.60;109367;1249;59727;-57
2024/04/06 00:04:17;;;;;;;44.40;25.40;;;;;;;1.33;100.00;100784.96;109453;1250;60060;-54
2024/04/06 00:06:45;;;;;;;54.20;28.80;;;;;;;1.33;100.00;100784.63;109466;1250;73653;-52
2024/04/06 00:09:13;;;;;;;42.90;23.60;;;;;;;1.32;100.00;100785.17;109470;1250;67560;-52
2024/04/06 00:11:40;;;;;;;40.90;24.00;;;;;;;1.32;100.00;100787.59;109436;1250;72768;-53
2024/04/06 00:14:08;;;;;;;40.50;22.80;;;;;;;1.34;100.00;100787.29;109418;1250;60753;-52
2024/04/06 00:16:35;;;;;;;46.70;29.70;;;;;;;1.36;100.00;100792.76;109463;1250;59806;-53
2024/04/06 00:19:02;;;;;;;49.90;28.70;;;;;;;1.37;100.00;100795.60;109459;1250;75474;-54
2024/04/06 00:21:30;;;;;;;53.60;28.20;;;;;;;1.36;100.00;100802.17;109490;1250;65203;-52
2024/04/06 00:23:57;;;;;;;47.30;26.70;;;;;;;1.35;100.00;100808.93;109393;1249;71161;-52
2024/04/06 00:26:25;;;;;;;39.90;23.00;;;;;;;1.36;100.00;100811.45;109450;1250;59773;-52
2024/04/06 00:28:52;;;;;;;46.20;25.10;;;;;;;1.32;100.00;100810.39;109467;1249;60168;-52
2024/04/06 00:31:19;;;;;;;42.10;24.10;;;;;;;1.26;100.00;100804.86;109507;1250;74224;-52
2024/04/06 00:33:47;;;;;;;41.30;24.90;;;;;;;1.20;100.00;100811.05;109444;1250;66332;-54
2024/04/06 00:36:14;;;;;;;47.40;24.90;;;;;;;1.15;100.00;100810.23;109484;1250;73931;-52
2024/04/06 00:38:42;;;;;;;39.10;23.00;;;;;;;1.10;100.00;100814.34;109480;1250;60966;-52
2024/04/06 00:41:09;;;;;;;43.60;22.30;;;;;;;1.03;100.00;100813.97;109519;1249;59799;-52
2024/04/06 00:43:37;;;;;;;42.70;25.00;;;;;;;0.97;100.00;100815.42;109464;1250;74100;-52
2024/04/06 00:46:04;;;;;;;39.50;22.60;;;;;;;0.92;100.00;100811.14;109425;1253;67041;-58
2024/04/06 00:48:32;;;;;;;46.20;25.20;;;;;;;0.90;100.00;100811.27;109465;1250;71522;-53
2024/04/06 00:51:02;;;;;;;42.90;24.00;;;;;;;0.89;100.00;100812.73;109269;1250;59799;-52
2024/04/06 00:53:30;;;;;;;45.90;23.60;;;;;;;0.88;100.00;100816.92;109507;1250;60160;-52
2024/04/06 00:55:58;;;;;;;39.60;23.40;;;;;;;0.83;100.00;100814.48;109464;1250;75563;-52
2024/04/06 00:58:25;;;;;;;43.60;22.60;;;;;;;0.78;100.00;100818.43;109490;1250;67108;-52
2024/04/06 01:00:53;;;;;;;41.60;22.50;;;;;;;0.73;100.00;100818.62;109412;1250;72775;-53
2024/04/06 01:03:20;;;;;;;42.60;24.50;;;;;;;0.65;100.00;100822.05;109471;1250;59809;-53
2024/04/06 01:05:48;;;;;;;39.10;23.10;;;;;;;0.58;100.00;100823.20;109457;1250;60161;-53
2024/04/06 01:08:15;;;;;;;40.40;23.10;;;;;;;0.54;100.00;100825.95;109403;1251;75452;-52
2024/04/06 01:10:43;;;;;;;40.20;21.60;;;;;;;0.49;100.00;100826.42;109518;1250;66936;-53
2024/04/06 01:13:10;;;;;;;38.70;22.20;;;;;;;0.49;100.00;100824.88;109481;1251;73200;-53
2024/04/06 01:15:38;;;;;;;40.60;22.90;;;;;;;0.48;100.00;100820.63;109429;1251;59822;-52
2024/04/06 01:18:06;;;;;;;42.00;22.00;;;;;;;0.49;100.00;100819.59;109370;1253;59838;-52
2024/04/06 01:20:35;;;;;;;43.20;24.50;;;;;;;0.50;100.00;100820.54;109503;1251;75572;-52
2024/04/06 01:23:03;;;;;;;45.20;25.90;;;;;;;0.51;100.00;100825.23;109447;1253;65642;-53
2024/04/06 01:25:30;;;;;;;46.00;25.20;;;;;;;0.53;100.00;100822.91;109390;1251;71375;-52
2024/04/06 01:27:58;;;;;;;46.20;26.80;;;;;;;0.52;100.00;100816.27;109392;1251;59808;-57
2024/04/06 01:30:25;;;;;;;44.60;22.70;;;;;;;0.53;100.00;100824.27;109437;1251;59710;-52
2024/04/06 01:32:53;;;;;;;42.20;23.50;;;;;;;0.53;100.00;100828.38;109483;1251;75437;-53
2024/04/06 01:35:21;;;;;;;41.40;24.80;;;;;;;0.51;100.00;100830.70;109485;1251;65797;-52
2024/04/06 01:37:48;;;;;;;44.30;24.40;;;;;;;0.50;100.00;100831.64;109471;1251;72662;-52
2024/04/06 01:40:16;;;;;;;42.40;22.80;;;;;;;0.50;100.00;100831.13;109440;1251;60254;-53
2024/04/06 01:42:43;;;;;;;39.70;22.80;;;;;;;0.49;100.00;100828.10;109449;1251;59774;-52
2024/04/06 01:45:11;;;;;;;41.20;20.60;;;;;;;0.47;100.00;100831.33;109500;1251;75547;-53
2024/04/06 01:47:38;;;;;;;29.90;20.50;;;;;;;0.46;100.00;100830.41;109501;1251;66978;-52
2024/04/06 01:50:08;;;;;;;38.90;23.90;;;;;;;0.43;100.00;100831.95;109496;1251;70451;-53
2024/04/06 01:52:35;;;;;;;41.00;23.00;;;;;;;0.42;100.00;100834.21;109395;1252;59841;-53
2024/04/06 01:55:03;;;;;;;35.30;20.20;;;;;;;0.43;100.00;100833.18;109506;1255;60413;-52
2024/04/06 01:57:30;;;;;;;43.30;21.70;;;;;;;0.41;100.00;100830.22;109479;1250;75544;-54
2024/04/06 01:59:58;;;;;;;38.70;20.60;;;;;;;0.39;100.00;100832.74;109544;1250;65606;-52
2024/04/06 02:02:25;;;;;;;31.10;18.80;;;;;;;0.37;100.00;100837.31;109446;1252;72707;-53
2024/04/06 02:04:53;;;;;;;36.10;20.60;;;;;;;0.35;100.00;100835.56;109510;1251;59937;-52
2024/04/06 02:07:20;;;;;;;34.80;20.90;;;;;;;0.34;100.00;100835.45;109486;1250;60412;-52
2024/04/06 02:09:48;;;;;;;35.90;21.50;;;;;;;0.30;100.00;100833.04;109482;1250;75536;-53
2024/04/06 02:12:15;;;;;;;37.10;20.90;;;;;;;0.22;100.00;100838.32;109469;1251;66973;-58
2024/04/06 02:14:43;;;;;;;30.50;19.00;;;;;;;0.12;100.00;100835.06;109498;1252;72759;-52
2024/04/06 02:17:10;;;;;;;35.90;19.60;;;;;;;0.02;100.00;100836.91;109495;1250;59779;-53
2024/04/06 02:19:38;;;;;;;37.30;21.50;;;;;;;-0.08;100.00;100836.83;109518;1250;60212;-52
2024/04/06 02:22:05;;;;;;;37.30;21.40;;;;;;;-0.15;100.00;100840.38;109488;1250;75513;-53
2024/04/06 02:24:34;;;;;;;41.40;22.80;;;;;;;-0.22;100.00;100843.95;109455;1251;67387;-53
2024/04/06 02:27:02;;;;;;;38.70;21.40;;;;;;;-0.27;100.00;100842.04;109485;1252;72652;-52
2024/04/06 02:29:31;;;;;;;39.60;22.70;;;;;;;-0.31;100.00;100838.67;109510;1250;59713;-54
2024/04/06 02:31:58;;;;;;;40.70;24.40;;;;;;;-0.32;100.00;100834.99;109500;1250;59762;-53
2024/04/06 02:34:26;;;;;;;38.70;21.90;;;;;;;-0.32;100.00;100833.61;109449;1251;76081;-53
2024/04/06 02:36:53;;;;;;;42.80;23.10;;;;;;;-0.29;100.00;100838.20;109521;1251;67057;-52
2024/04/06 02:39:20;;;;;;;37.10;22.30;;;;;;;-0.28;100.00;100842.41;109447;1252;72755;-53
2024/04/06 02:41:48;;;;;;;41.40;23.70;;;;;;;-0.26;100.00;100844.33;109476;1253;59968;-52
2024/04/06 02:44:16;;;;;;;39.80;23.80;;;;;;;-0.23;100.00;100849.49;109465;1251;60098;-53
2024/04/06 02:46:44;;;;;;;38.30;23.10;;;;;;;-0.21;100.00;100850.23;109511;1250;75482;-53
2024/04/06 02:49:11;;;;;;;42.10;24.20;;;;;;;-0.20;100.00;100853.35;109530;1250;67159;-52
2024/04/06 02:51:38;;;;;;;36.70;22.90;;;;;;;-0.18;100.00;100856.53;109468;1253;71412;-52
2024/04/06 02:54:06;;;;;;;42.40;22.80;;;;;;;-0.20;100.00;100856.60;109465;1250;60189;-53
2024/04/06 02:56:33;;;;;;;41.50;23.30;;;;;;;-0.23;100.00;100860.05;109540;1251;60137;-54
2024/04/06 02:59:01;;;;;;;42.10;24.60;;;;;;;-0.27;100.00;100858.60;109497;1250;73468;-54
2024/04/06 03:01:29;;;;;;;42.40;26.10;;;;;;;-0.30;100.00;100858.27;109463;1253;66950;-53
2024/04/06 03:03:56;;;;;;;55.70;29.70;;;;;;;-0.28;100.00;100856.10;109494;1251;72036;-52
2024/04/06 03:06:24;;;;;;;54.50;28.90;;;;;;;-0.22;100.00;100855.55;109441;1253;60957;-58
2024/04/06 03:08:51;;;;;;;42.90;24.10;;;;;;;-0.11;100.00;100854.87;109451;1253;60592;-52
2024/04/06 03:11:19;;;;;;;36.30;20.80;;;;;;;0.05;100.00;100854.10;109481;1250;74236;-52
2024/04/06 03:13:47;;;;;;;38.50;21.00;;;;;;;0.31;100.00;100859.25;109472;1251;65677;-53
2024/04/06 03:16:15;;;;;;;32.10;20.00;;;;;;;0.65;100.00;100860.52;109475;1250;72715;-52
2024/04/06 03:18:42;;;;;;;27.60;18.70;;;;;;;1.01;100.00;100863.53;109416;1251;59889;-53
2024/04/06 03:21:10;;;;;;;28.40;17.10;;;;;;;1.49;100.00;100862.77;109518;1250;59863;-53
2024/04/06 03:23:37;;;;;;;28.70;18.50;;;;;;;2.06;100.00;100861.54;109531;1251;75543;-52
2024/04/06 03:26:04;;;;;;;29.40;16.50;;;;;;;2.68;100.00;100859.23;109511;1252;67419;-53
2024/04/06 03:28:32;;;;;;;29.20;17.00;;;;;;;3.47;100.00;100860.83;109471;1252;72725;-54
2024/04/06 03:30:59;;;;;;;31.40;17.30;;;;;;;4.33;100.00;100860.83;109444;1252;59696;-54
2024/04/06 03:33:27;;;;;;;27.50;18.80;;;;;;;5.18;100.00;100865.11;109515;1250;59867;-53
2024/04/06 03:35:54;;;;;;;25.30;17.10;;;;;;;6.05;100.00;100862.33;109505;1251;75550;-54
2024/04/06 03:38:22;;;;;;;27.10;17.40;;;;;;;6.89;100.00;100858.23;109517;1251;66124;-58
2024/04/06 03:40:49;;;;;;;25.50;17.70;;;;;;;7.73;100.00;100852.40;109484;1251;71452;-54
2024/04/06 03:43:17;;;;;;;24.40;17.40;;;;;;;8.50;100.00;100844.62;109475;1251;60576;-54
2024/04/06 03:45:46;;;;;;;25.60;18.60;;;;;;;9.13;100.00;100829.48;109492;1250;60143;-53
2024/04/06 03:48:13;;;;;;;25.40;16.70;;;;;;;9.63;100.00;100814.38;109475;1251;76088;-59
2024/04/06 03:50:41;;;;;;;24.90;17.80;;;;;;;10.05;100.00;100798.33;109469;1250;66379;-54
2024/04/06 03:53:10;;;;;;;24.70;17.50;;;;;;;10.50;100.00;100781.95;109503;1251;72791;-54
2024/04/06 03:55:37;;;;;;;27.60;18.40;;;;;;;11.08;100.00;100774.99;109424;1256;60161;-54
2024/04/06 03:58:05;;;;;;;25.70;18.10;;;;;;;11.59;100.00;100771.41;109505;1250;59653;-55
2024/04/06 04:00:32;;;;;;;25.50;17.60;;;;;;;12.10;100.00;100770.73;109481;1251;74700;-55
2024/04/06 04:03:00;;;;;;;24.10;18.20;;;;;;;12.75;100.00;100768.71;109501;1251;65803;-54
2024/04/06 04:05:27;;;;;;;26.50;19.60;;;;;;;13.31;100.00;100761.83;109499;1252;71729;-54
2024/04/06 04:07:54;;;;;;;24.40;18.50;;;;;;;13.77;100.00;100758.05;109465;1252;60145;-54
2024/04/06 04:10:22;;;;;;;30.20;19.30;;;;;;;14.15;96.56;100755.94;109436;1251;60285;-55
2024/04/06 04:12:50;;;;;;;21.90;17.80;;;;;;;14.70;86.06;100756.75;109435;1251;74618;-54
2024/04/06 04:15:17;;;;;;;24.80;17.50;;;;;;;15.33;74.63;100757.66;109513;1251;65929;-54
2024/04/06 04:17:45;;;;;;;23.10;17.60;;;;;;;15.90;63.77;100755.58;109470;1251;72739;-54
2024/04/06 04:20:12;;;;;;;24.70;18.90;;;;;;;16.36;57.20;100758.22;109479;1250;59766;-59
2024/04/06 04:22:40;;;;;;;24.20;17.20;;;;;;;16.81;52.24;100758.61;109462;1251;60075;-54
2024/04/06 04:25:07;;;;;;;20.30;17.80;;;;;;;17.07;49.77;100760.10;109490;1251;74561;-55
2024/04/06 04:27:34;;;;;;;24.30;17.10;;;;;;;17.47;47.66;100762.96;109504;1250;65784;-54
2024/04/06 04:30:02;;;;;;;21.40;16.10;;;;;;;17.72;44.85;100753.78;109487;1251;72726;-55
2024/04/06 04:32:30;;;;;;;21.20;15.70;;;;;;;17.96;43.52;100751.77;109417;1253;60248;-55
2024/04/06 04:34:58;;;;;;;21.30;15.50;;;;;;;18.16;41.76;100750.48;109485;1251;59670;-55
2024/04/06 04:37:25;;;;;;;18.50;13.20;;;;;;;18.06;40.87;100752.15;109494;1250;75533;-54
2024/04/06 04:39:52;;;;;;;24.00;18.40;;;;;;;18.21;40.79;100754.96;109484;1251;67531;-54
2024/04/06 04:42:20;;;;;;;20.00;14.70;;;;;;;18.65;40.17;100758.49;109433;1251;72710;-55
2024/04/06 04:44:47;;;;;;;21.20;14.30;;;;;;;19.15;39.36;100755.39;109439;1251;60208;-55
2024/04/06 04:47:24;;;;;;;18.80;15.00;;;;;;;19.61;38.49;100747.64;109415;1250;60093;-54
2024/04/06 04:49:52;;;;;;;16.60;14.80;;;;;;;20.12;37.47;100748.05;109415;1251;75520;-54
2024/04/06 04:52:19;;;;;;;14.90;13.30;;;;;;;20.57;36.34;100747.17;109528;1251;65822;-59
2024/04/06 04:54:47;;;;;;;15.80;13.60;;;;;;;20.98;35.07;100745.68;109452;1251;73105;-54
2024/04/06 04:57:14;;;;;;;19.20;14.10;;;;;;;21.09;34.40;100745.70;109459;1251;60700;-56
2024/04/06 04:59:41;;;;;;;17.30;14.10;;;;;;;21.26;34.13;100745.01;109467;1250;59811;-55
2024/04/06 05:02:09;;;;;;;17.20;14.90;;;;;;;21.40;33.94;100748.27;109552;1251;75488;-55
2024/04/06 05:04:36;;;;;;;14.90;13.30;;;;;;;21.42;33.46;100745.28;109492;1251;66220;-55
2024/04/06 05:07:04;;;;;;;14.80;13.20;;;;;;;21.50;33.31;100748.11;109500;1252;72747;-55
2024/04/06 05:09:31;;;;;;;18.60;12.90;;;;;;;21.68;33.01;100750.44;109468;1250;59763;-54
2024/04/06 05:11:59;;;;;;;14.90;13.20;;;;;;;22.00;32.99;100743.10;109534;1250;60240;-55
2024/04/06 05:14:28;;;;;;;14.30;12.80;;;;;;;22.37;32.62;100739.79;109506;1250;74233;-56
2024/04/06 05:16:55;;;;;;;15.10;13.20;;;;;;;22.76;31.48;100740.91;109544;1249;66943;-55
2024/04/06 05:19:24;;;;;;;14.40;12.30;;;;;;;23.01;31.19;100740.48;109486;1253;71428;-54
2024/04/06 05:21:51;;;;;;;12.90;11.20;;;;;;;23.23;30.67;100738.45;109503;1250;60113;-56
2024/04/06 05:24:19;;;;;;;12.50;11.20;;;;;;;23.29;30.24;100734.56;109477;1250;59699;-59
2024/04/06 05:26:47;;;;;;;13.30;11.60;;;;;;;23.32;30.39;100736.35;109501;1250;75608;-56
2024/04/06 05:29:14;;;;;;;12.30;11.00;;;;;;;23.37;30.14;100735.31;109518;1250;65680;-55
2024/04/06 05:31:42;;;;;;;13.90;11.50;;;;;;;23.24;29.72;100733.09;109450;1250;72744;-54
2024/04/06 05:34:09;;;;;;;13.40;11.30;;;;;;;22.68;29.91;100736.23;109452;1250;59758;-55
2024/04/06 05:36:37;;;;;;;13.40;11.30;;;;;;;21.92;30.55;100738.69;109518;1250;60042;-55
2024/04/06 05:39:05;;;;;;;13.00;10.30;;;;;;;21.05;31.58;100744.79;109506;1250;74903;-56
2024/04/06 05:41:32;;;;;;;13.70;11.70;;;;;;;20.27;32.65;100742.15;109483;1250;66969;-55
2024/04/06 05:44:00;;;;;;;17.90;12.30;;;;;;;19.65;33.59;100743.05;109489;1250;72713;-55
2024/04/06 05:46:31;;;;;;;15.80;11.40;;;;;;;19.07;34.56;100742.55;109434;1250;60280;-55
2024/04/06 05:49:00;;;;;;;15.50;12.10;;;;;;;18.58;35.15;100745.95;109548;1250;60266;-55
2024/04/06 05:51:28;;;;;;;15.70;12.50;;;;;;;18.01;36.00;100744.93;109438;1250;75526;-56
2024/04/06 05:53:55;;;;;;;16.60;11.20;;;;;;;17.56;37.21;100744.64;109473;1250;66955;-54
2024/04/06 05:56:23;;;;;;;14.80;11.60;;;;;;;17.44;37.95;100745.27;109468;1250;72927;-54
2024/04/06 05:58:50;;;;;;;15.10;11.20;;;;;;;17.49;38.39;100738.04;109490;1253;60165;-55
2024/04/06 06:01:17;;;;;;;15.20;10.40;;;;;;;17.73;38.69;100733.45;109524;1250;59720;-54
2024/04/06 06:03:45;;;;;;;14.80;12.00;;;;;;;17.79;38.32;100734.66;109520;1255;75510;-54
2024/04/06 06:06:13;;;;;;;16.80;12.40;;;;;;;17.60;38.99;100730.08;109449;1250;67532;-55
2024/04/06 06:08:41;;;;;;;16.00;12.60;;;;;;;17.48;39.54;100732.37;109477;1250;73172;-55
2024/04/06 06:11:08;;;;;;;17.70;11.80;;;;;;;17.33;39.66;100734.33;109493;1250;59889;-54
2024/04/06 06:13:36;;;;;;;14.20;10.30;;;;;;;17.09;40.10;100735.24;109500;1250;60132;-54
2024/04/06 06:16:03;;;;;;;18.30;11.90;;;;;;;17.04;40.81;100736.66;109498;1250;74162;-55
2024/04/06 06:18:31;;;;;;;20.10;12.00;;;;;;;17.25;41.34;100730.64;109482;1255;65769;-54
2024/04/06 06:21:03;;;;;;;17.30;10.80;;;;;;;17.54;40.96;100724.73;109478;1250;72735;-54
2024/04/06 06:23:31;;;;;;;13.10;10.40;;;;;;;17.74;40.48;100724.64;109502;1251;60177;-55
2024/04/06 06:25:58;;;;;;;13.40;10.70;;;;;;;17.87;40.49;100723.91;109566;1250;59762;-54
2024/04/06 06:28:26;;;;;;;15.70;10.10;;;;;;;18.19;39.77;100720.38;109496;1250;75509;-57
2024/04/06 06:30:53;;;;;;;15.20;10.70;;;;;;;18.36;39.28;100721.48;109518;1250;67480;-55
2024/04/06 06:33:21;;;;;;;13.60;10.30;;;;;;;18.84;38.96;100721.80;109465;1251;72484;-55
2024/04/06 06:35:55;;;;;;;15.50;10.30;;;;;;;19.57;37.83;100716.34;109462;1250;60192;-56
2024/04/06 06:38:25;;;;;;;12.40;9.10;;;;;;;20.44;36.64;100716.05;109501;1253;59835;-58
2024/04/06 06:40:54;;;;;;;13.00;9.20;;;;;;;21.09;35.21;100709.11;109454;1252;75728;-55
2024/04/06 06:43:21;;;;;;;11.40;8.90;;;;;;;21.63;34.28;100707.12;109477;1250;65767;-55
2024/04/06 06:45:49;;;;;;;16.70;10.00;;;;;;;22.12;33.57;100700.61;109559;1251;72661;-55
2024/04/06 06:48:16;;;;;;;12.20;9.10;;;;;;;22.62;32.48;100700.13;109446;1251;59769;-57
2024/04/06 06:50:44;;;;;;;12.60;9.50;;;;;;;22.95;31.75;100692.23;109464;1251;60009;-55
2024/04/06 06:53:11;;;;;;;14.90;9.60;;;;;;;23.19;31.38;100688.21;109453;1250;75494;-56
2024/04/06 06:55:38;;;;;;;13.70;9.80;;;;;;;23.61;31.13;100686.49;109472;1251;67026;-56
2024/04/06 06:58:06;;;;;;;15.10;8.30;;;;;;;24.09;30.55;100686.90;109456;1254;72358;-55
2024/04/06 07:00:34;;;;;;;11.90;8.10;;;;;;;24.37;29.61;100685.98;109456;1251;60040;-60
2024/04/06 07:03:01;;;;;;;10.00;7.10;;;;;;;24.51;29.32;100688.98;109492;1253;59994;-55
2024/04/06 07:05:28;;;;;;;11.50;7.80;;;;;;;24.77;29.11;100689.16;109499;1250;75580;-55
2024/04/06 07:07:58;;;;;;;9.90;7.30;;;;;;;25.08;28.55;100686.49;109536;1256;66944;-56
2024/04/06 07:10:25;;;;;;;11.20;8.00;;;;;;;25.15;28.28;100683.94;109507;1250;71392;-55
2024/04/06 07:12:53;;;;;;;10.80;7.40;;;;;;;25.29;27.73;100684.12;109458;1251;61654;-53
2024/04/06 07:15:20;;;;;;;11.10;6.50;;;;;;;25.02;27.66;100682.11;109542;1250;60310;-55
2024/04/06 07:17:48;;;;;;;8.40;6.50;;;;;;;24.75;27.59;100677.27;109510;1250;77306;-57
2024/04/06 07:20:15;;;;;;;11.10;6.50;;;;;;;24.30;27.94;100674.60;109463;1251;66925;-56
2024/04/06 07:22:43;;;;;;;10.00;7.20;;;;;;;24.05;28.76;100672.20;109422;1250;71465;-55
2024/04/06 07:25:10;;;;;;;9.70;7.80;;;;;;;24.30;28.34;100667.88;109435;1251;59827;-56
2024/04/06 07:27:38;;;;;;;7.20;5.90;;;;;;;24.42;28.18;100667.65;109567;1249;60072;-55
2024/04/06 07:30:06;;;;;;;8.70;5.30;;;;;;;24.40;27.90;100665.41;109447;1250;77939;-55
2024/04/06 07:32:33;;;;;;;8.60;6.20;;;;;;;24.20;28.24;100668.04;109443;1251;65660;-58
2024/04/06 07:35:02;;;;;;;8.10;5.80;;;;;;;24.29;28.21;100672.52;109442;1254;72697;-55
2024/04/06 07:37:30;;;;;;;7.20;5.40;;;;;;;24.56;28.28;100667.09;109490;1250;59815;-55
2024/04/06 07:39:57;;;;;;;8.40;6.00;;;;;;;25.01;27.85;100659.60;109506;1251;60099;-55
2024/04/06 07:42:24;;;;;;;6.60;4.60;;;;;;;25.44;27.30;100656.74;109449;1249;75543;-55
2024/04/06 07:44:52;;;;;;;7.80;5.70;;;;;;;25.29;26.40;100655.17;109547;1250;66063;-55
2024/04/06 07:47:19;;;;;;;7.30;5.80;;;;;;;24.72;27.22;100650.61;109420;1249;72362;-55
2024/04/06 07:49:47;;;;;;;6.70;5.00;;;;;;;24.54;27.52;100646.67;109494;1250;60171;-55
2024/04/06 07:52:14;;;;;;;8.40;4.90;;;;;;;24.45;27.69;100651.67;109421;1254;62250;-54
2024/04/06 07:54:41;;;;;;;6.00;4.60;;;;;;;24.60;27.56;100650.52;109442;1249;75709;-54
2024/04/06 07:57:09;;;;;;;6.90;4.60;;;;;;;24.89;27.41;100640.73;109474;1251;68292;-56
2024/04/06 07:59:37;;;;;;;6.00;4.10;;;;;;;25.24;26.92;100638.52;109427;1251;72837;-57
2024/04/06 08:02:04;;;;;;;6.30;5.00;;;;;;;25.61;26.71;100632.83;109391;1251;59701;-55
2024/04/06 08:04:32;;;;;;;7.50;5.60;;;;;;;26.08;26.37;100628.84;109460;1251;62070;-55
2024/04/06 08:07:00;;;;;;;10.30;5.20;;;;;;;26.41;25.76;100629.13;109458;1251;78277;-54
2024/04/06 08:09:31;;;;;;;13.10;5.20;;;;;;;26.63;25.80;100625.79;109508;1250;65771;-55
2024/04/06 08:11:58;;;;;;;6.30;4.40;;;;;;;26.86;25.37;100622.31;109500;1251;72805;-55
2024/04/06 08:14:26;;;;;;;19.70;5.50;;;;;;;27.02;25.27;100615.52;109476;1251;61516;-54
2024/04/06 08:16:54;;;;;;;6.20;4.50;;;;;;;27.21;25.26;100615.30;109455;1250;59777;-58
2024/04/06 08:19:21;;;;;;;6.00;4.30;;;;;;;27.41;24.61;100613.06;109470;1254;77188;-54
2024/04/06 08:21:49;;;;;;;7.00;4.40;;;;;;;27.29;23.98;100613.90;109492;1251;67712;-54
2024/04/06 08:24:17;;;;;;;6.40;4.60;;;;;;;27.09;24.00;100607.95;109469;1250;72700;-57
2024/04/06 08:26:45;;;;;;;6.70;4.00;;;;;;;27.09;23.90;100606.14;109466;1251;59725;-54
2024/04/06 08:29:13;;;;;;;13.90;4.40;;;;;;;27.20;24.01;100607.59;109506;1250;61200;-55
2024/04/06 08:31:40;;;;;;;5.10;3.80;;;;;;;27.22;24.06;100601.24;109510;1254;76882;-56
2024/04/06 08:34:08;;;;;;;7.30;3.70;;;;;;;27.32;23.78;100597.42;109514;1250;66962;-55
2024/04/06 08:36:36;;;;;;;7.00;3.50;;;;;;;27.49;23.59;100598.88;109468;1250;74994;-55
2024/04/06 08:39:04;;;;;;;6.10;4.00;;;;;;;27.67;23.72;100593.62;109396;1251;60222;-57
2024/04/06 08:41:31;;;;;;;5.40;3.80;;;;;;;27.83;23.47;100592.94;109468;1251;59841;-55
2024/04/06 08:44:00;;;;;;;5.70;3.80;;;;;;;27.75;22.71;100590.40;109324;1251;78015;-55
2024/04/06 08:46:27;;;;;;;8.40;4.20;;;;;;;26.99;23.21;100595.74;109429;1250;65793;-55
2024/04/06 08:48:55;;;;;;;6.90;4.40;;;;;;;26.23;24.37;100596.26;109459;1251;75298;-59
2024/04/06 08:51:24;;;;;;;6.50;4.50;;;;;;;25.96;24.60;100596.19;109375;1251;62452;-56
2024/04/06 08:53:51;;;;;;;5.70;4.10;;;;;;;25.98;24.69;100589.33;109452;1250;59671;-54
2024/04/06 08:56:19;;;;;;;9.00;4.50;;;;;;;25.92;24.86;100588.26;109473;1250;76356;-54
2024/04/06 08:58:46;;;;;;;6.40;4.40;;;;;;;25.69;24.98;100586.01;109468;1249;68406;-56
2024/04/06 09:01:14;;;;;;;5.60;4.10;;;;;;;25.59;25.39;100584.88;109377;1251;74335;-54
2024/04/06 09:03:42;;;;;;;10.80;4.60;;;;;;;25.50;24.96;100588.61;109463;1251;62216;-54
2024/04/06 09:06:18;;;;;;;4.60;3.20;;;;;;;25.27;25.17;100586.20;109498;1249;61879;-55
2024/04/06 09:08:46;;;;;;;6.20;4.40;;;;;;;25.11;25.40;100587.52;109437;1251;77767;-54
2024/04/06 09:11:14;;;;;;;6.10;3.40;;;;;;;24.93;25.23;100587.50;109492;1251;67886;-54
2024/04/06 09:13:44;;;;;;;4.50;3.10;;;;;;;24.78;25.17;100580.27;109471;1251;75228;-53
2024/04/06 09:16:12;;;;;;;4.60;3.60;;;;;;;24.56;25.46;100577.27;109476;1250;59727;-55
2024/04/06 09:18:40;;;;;;;4.30;3.00;;;;;;;24.23;25.69;100577.36;109472;1249;61159;-54
2024/04/06 09:21:07;;;;;;;30.80;6.40;;;;;;;23.92;25.71;100576.42;109495;1251;77915;-54
2024/04/06 09:23:36;;;;;;;5.80;3.30;;;;;;;23.72;26.27;100570.41;109515;1251;69530;-55
2024/04/06 09:26:04;;;;;;;5.60;3.60;;;;;;;23.61;26.25;100568.64;109365;1250;74176;-54
2024/04/06 09:28:31;;;;;;;5.50;3.50;;;;;;;23.48;26.39;100564.83;109408;1252;60215;-57
2024/04/06 09:30:59;;;;;;;5.00;3.10;;;;;;;23.30;26.46;100558.45;109385;1251;62568;-56
2024/04/06 09:33:27;;;;;;;6.90;3.20;;;;;;;23.08;26.62;100557.75;109406;1250;75746;-57
2024/04/06 09:35:54;;;;;;;6.10;3.10;;;;;;;22.94;26.88;100554.05;109477;1251;69414;-56
2024/04/06 09:38:22;;;;;;;5.40;3.30;;;;;;;22.87;27.35;100546.81;109472;1251;74679;-56
2024/04/06 09:40:52;;;;;;;5.10;3.60;;;;;;;22.91;27.33;100545.89;109379;1249;62577;-56
2024/04/06 09:43:20;;;;;;;6.30;3.30;;;;;;;22.93;27.13;100539.85;109370;1250;62579;-56
2024/04/06 09:45:47;;;;;;;4.80;3.40;;;;;;;22.87;27.27;100535.91;109433;1251;76043;-56
2024/04/06 09:48:15;;;;;;;4.70;3.00;;;;;;;22.85;27.53;100532.83;109351;1249;69471;-54
2024/04/06 09:50:43;;;;;;;7.20;4.00;;;;;;;22.96;27.79;100530.08;109307;1253;74625;-57
2024/04/06 09:53:12;;;;;;;5.90;3.80;;;;;;;23.18;27.58;100529.61;109403;1251;63122;-57
2024/04/06 09:55:40;;;;;;;8.10;4.50;;;;;;;23.39;27.27;100529.79;109433;1249;61479;-56
2024/04/06 09:58:08;;;;;;;5.20;3.50;;;;;;;23.54;26.95;100527.92;109471;1249;77509;-56
2024/04/06 10:00:38;;;;;;;6.80;4.10;;;;;;;23.70;26.99;100523.55;109445;1250;69531;-57
2024/04/06 10:03:06;;;;;;;9.40;3.80;;;;;;;23.87;27.02;100522.67;109420;1250;74608;-56
2024/04/06 10:05:38;;;;;;;5.60;3.60;;;;;;;24.17;26.90;100517.15;109456;1251;62665;-56
2024/04/06 10:08:07;;;;;;;9.20;3.50;;;;;;;24.51;26.14;100513.22;109510;1251;60860;-56
2024/04/06 10:10:44;;;;;;;6.20;2.90;;;;;;;24.74;25.40;100504.61;109412;1251;77521;-61
2024/04/06 10:13:21;;;;;;;9.30;3.60;;;;;;;24.96;24.37;100501.14;109484;1251;67668;-56
2024/04/06 10:15:49;;;;;;;5.40;2.60;;;;;;;24.78;23.86;100498.00;109451;1250;74344;-56
2024/04/06 10:18:16;;;;;;;4.30;2.60;;;;;;;24.20;24.04;100503.94;109378;1251;62164;-58
2024/04/06 10:20:44;;;;;;;4.70;2.70;;;;;;;23.72;24.60;100504.87;109445;1249;61112;-54
2024/04/06 10:23:15;;;;;;;5.00;3.00;;;;;;;23.51;24.98;100504.45;109462;1249;77986;-54
2024/04/06 10:25:43;;;;;;;4.00;2.60;;;;;;;23.62;25.52;100501.22;109472;1250;68267;-54
2024/04/06 10:28:11;;;;;;;3.80;2.70;;;;;;;23.90;25.28;100496.91;109486;1249;73674;-54
2024/04/06 10:30:39;;;;;;;4.60;2.80;;;;;;;24.26;24.88;100492.11;109425;1250;62693;-59
2024/04/06 10:33:07;;;;;;;5.70;2.90;;;;;;;24.45;24.66;100484.98;109479;1251;62146;-54
2024/04/06 10:35:35;;;;;;;4.10;2.90;;;;;;;24.59;24.80;100481.95;109453;1249;76394;-54
2024/04/06 10:38:02;;;;;;;4.60;2.80;;;;;;;24.84;24.75;100479.95;109362;1251;69496;-55
2024/04/06 10:40:37;;;;;;;4.70;2.90;;;;;;;25.16;24.39;100476.70;109389;1251;75221;-58
2024/04/06 10:43:05;;;;;;;6.20;2.80;;;;;;;25.51;23.61;100469.40;109361;1254;62476;-54
2024/04/06 10:45:34;;;;;;;4.40;2.50;;;;;;;25.79;23.09;100469.33;109449;1250;61084;-55
2024/04/06 10:48:02;;;;;;;5.10;3.00;;;;;;;26.01;22.38;100461.20;109465;1250;77923;-56
2024/04/06 10:50:29;;;;;;;5.10;2.50;;;;;;;26.00;22.53;100459.66;109423;1251;68479;-57
2024/04/06 10:52:58;;;;;;;7.70;3.20;;;;;;;26.10;22.44;100455.66;109448;1250;73745;-54
2024/04/06 10:55:27;;;;;;;6.10;2.90;;;;;;;26.28;21.82;100452.88;109390;1250;62568;-54
2024/04/06 10:57:58;;;;;;;5.40;2.80;;;;;;;26.33;21.26;100446.73;109485;1250;61442;-54
2024/04/06 11:00:26;;;;;;;4.50;2.60;;;;;;;26.38;21.03;100445.98;109367;1249;77967;-58
2024/04/06 11:02:59;;;;;;;3.80;2.40;;;;;;;26.43;20.73;100448.34;109476;1250;67725;-54
2024/04/06 11:05:27;;;;;;;3.50;2.20;;;;;;;26.46;20.31;100443.02;109479;1250;75290;-55
2024/04/06 11:07:54;;;;;;;3.70;2.20;;;;;;;26.52;20.18;100438.86;109440;1250;61163;-55
2024/04/06 11:10:22;;;;;;;3.80;2.10;;;;;;;26.48;19.54;100438.45;109442;1249;61461;-56